sensor_id;sensor_type;location;lat;lon;timestamp;P1;durP1;ratioP1;P2;durP2;ratioP2
75311;SDS011;63906;55.686;37.532;2023-08-20T00:04:38;6.68;;;5.28;;
75311;SDS011;63906;55.686;37.532;2023-08-20T00:09:39;6.30;;;4.60;;
75311;SDS011;63906;55.686;37.532;2023-08-20T00:14:56;5.60;;;4.80;;
75311;SDS011;63906;55.686;37.532;2023-08-20T00:19:58;6.10;;;4.97;;
75311;SDS011;63906;55.686;37.532;2023-08-20T00:24:59;5.20;;;4.20;;
75311;SDS011;63906;55.686;37.532;2023-08-20T00:30:00;7.47;;;5.35;;
75311;SDS011;63906;55.686;37.532;2023-08-20T00:35:01;7.00;;;5.53;;
75311;SDS011;63906;55.686;37.532;2023-08-20T00:40:05;5.88;;;5.20;;
75311;SDS011;63906;55.686;37.532;2023-08-20T00:45:06;7.05;;;5.30;;
75311;SDS011;63906;55.686;37.532;2023-08-20T00:50:07;6.22;;;5.03;;
75311;SDS011;63906;55.686;37.532;2023-08-20T00:55:09;6.88;;;5.50;;
75311;SDS011;63906;55.686;37.532;2023-08-20T01:05:11;6.25;;;4.90;;
75311;SDS011;63906;55.686;37.532;2023-08-20T01:15:16;6.35;;;5.13;;
75311;SDS011;63906;55.686;37.532;2023-08-20T01:20:16;6.07;;;4.90;;
75311;SDS011;63906;55.686;37.532;2023-08-20T01:25:32;7.03;;;5.70;;
75311;SDS011;63906;55.686;37.532;2023-08-20T01:30:44;5.47;;;4.88;;
75311;SDS011;63906;55.686;37.532;2023-08-20T01:35:45;6.18;;;5.13;;
75311;SDS011;63906;55.686;37.532;2023-08-20T01:40:46;6.88;;;4.90;;
75311;SDS011;63906;55.686;37.532;2023-08-20T01:45:47;5.78;;;4.53;;
75311;SDS011;63906;55.686;37.532;2023-08-20T01:50:47;5.63;;;4.63;;
75311;SDS011;63906;55.686;37.532;2023-08-20T01:55:48;6.47;;;5.00;;
75311;SDS011;63906;55.686;37.532;2023-08-20T02:00:48;6.72;;;5.20;;
75311;SDS011;63906;55.686;37.532;2023-08-20T02:05:49;7.37;;;5.60;;
75311;SDS011;63906;55.686;37.532;2023-08-20T02:10:49;7.13;;;5.43;;
75311;SDS011;63906;55.686;37.532;2023-08-20T02:15:57;5.90;;;4.80;;
75311;SDS011;63906;55.686;37.532;2023-08-20T02:20:58;7.70;;;5.68;;
75311;SDS011;63906;55.686;37.532;2023-08-20T02:25:58;8.10;;;5.40;;
75311;SDS011;63906;55.686;37.532;2023-08-20T02:31:03;7.30;;;5.85;;
75311;SDS011;63906;55.686;37.532;2023-08-20T02:36:04;6.18;;;5.25;;
75311;SDS011;63906;55.686;37.532;2023-08-20T02:41:05;5.35;;;4.85;;
75311;SDS011;63906;55.686;37.532;2023-08-20T02:46:05;5.82;;;5.03;;
75311;SDS011;63906;55.686;37.532;2023-08-20T02:51:06;6.28;;;5.30;;
75311;SDS011;63906;55.686;37.532;2023-08-20T02:56:06;7.53;;;6.28;;
75311;SDS011;63906;55.686;37.532;2023-08-20T03:01:07;9.90;;;7.90;;
75311;SDS011;63906;55.686;37.532;2023-08-20T03:06:18;13.73;;;10.98;;
75311;SDS011;63906;55.686;37.532;2023-08-20T03:11:18;16.27;;;10.93;;
75311;SDS011;63906;55.686;37.532;2023-08-20T03:16:19;14.15;;;10.82;;
75311;SDS011;63906;55.686;37.532;2023-08-20T03:21:19;18.70;;;13.07;;
75311;SDS011;63906;55.686;37.532;2023-08-20T03:26:20;18.77;;;11.40;;
75311;SDS011;63906;55.686;37.532;2023-08-20T03:31:20;21.58;;;13.63;;
75311;SDS011;63906;55.686;37.532;2023-08-20T03:36:21;16.00;;;12.23;;
75311;SDS011;63906;55.686;37.532;2023-08-20T03:41:21;16.17;;;11.57;;
75311;SDS011;63906;55.686;37.532;2023-08-20T03:46:22;15.93;;;11.73;;
75311;SDS011;63906;55.686;37.532;2023-08-20T03:51:22;15.38;;;11.57;;
75311;SDS011;63906;55.686;37.532;2023-08-20T03:56:23;12.73;;;9.80;;
75311;SDS011;63906;55.686;37.532;2023-08-20T04:01:23;10.47;;;8.13;;
75311;SDS011;63906;55.686;37.532;2023-08-20T04:06:24;10.93;;;8.07;;
75311;SDS011;63906;55.686;37.532;2023-08-20T04:11:24;9.05;;;6.68;;
75311;SDS011;63906;55.686;37.532;2023-08-20T04:16:25;10.20;;;7.05;;
75311;SDS011;63906;55.686;37.532;2023-08-20T04:21:25;14.65;;;10.35;;
75311;SDS011;63906;55.686;37.532;2023-08-20T04:26:26;17.63;;;12.45;;
75311;SDS011;63906;55.686;37.532;2023-08-20T04:31:27;15.18;;;11.88;;
75311;SDS011;63906;55.686;37.532;2023-08-20T04:36:27;13.80;;;9.85;;
75311;SDS011;63906;55.686;37.532;2023-08-20T04:41:28;12.02;;;9.27;;
75311;SDS011;63906;55.686;37.532;2023-08-20T04:46:28;12.82;;;9.23;;
75311;SDS011;63906;55.686;37.532;2023-08-20T04:51:28;13.00;;;10.20;;
75311;SDS011;63906;55.686;37.532;2023-08-20T04:56:29;13.57;;;9.77;;
75311;SDS011;63906;55.686;37.532;2023-08-20T05:01:30;12.60;;;9.48;;
75311;SDS011;63906;55.686;37.532;2023-08-20T05:06:30;11.55;;;9.18;;
75311;SDS011;63906;55.686;37.532;2023-08-20T05:11:31;10.00;;;7.85;;
75311;SDS011;63906;55.686;37.532;2023-08-20T05:16:33;10.70;;;8.43;;
75311;SDS011;63906;55.686;37.532;2023-08-20T05:21:33;10.70;;;8.23;;
75311;SDS011;63906;55.686;37.532;2023-08-20T05:26:34;12.55;;;8.73;;
75311;SDS011;63906;55.686;37.532;2023-08-20T05:31:34;11.75;;;8.60;;
75311;SDS011;63906;55.686;37.532;2023-08-20T05:36:35;9.88;;;7.82;;
75311;SDS011;63906;55.686;37.532;2023-08-20T05:41:35;10.43;;;8.35;;
75311;SDS011;63906;55.686;37.532;2023-08-20T05:46:36;11.77;;;9.20;;
75311;SDS011;63906;55.686;37.532;2023-08-20T05:51:36;11.25;;;8.32;;
75311;SDS011;63906;55.686;37.532;2023-08-20T05:56:37;10.73;;;8.25;;
75311;SDS011;63906;55.686;37.532;2023-08-20T06:01:38;10.95;;;8.20;;
75311;SDS011;63906;55.686;37.532;2023-08-20T06:06:38;11.55;;;8.85;;
75311;SDS011;63906;55.686;37.532;2023-08-20T06:16:40;13.43;;;9.37;;
75311;SDS011;63906;55.686;37.532;2023-08-20T06:21:41;12.03;;;9.47;;
75311;SDS011;63906;55.686;37.532;2023-08-20T06:26:41;9.20;;;8.03;;
75311;SDS011;63906;55.686;37.532;2023-08-20T06:31:44;9.73;;;7.72;;
75311;SDS011;63906;55.686;37.532;2023-08-20T06:36:44;8.60;;;7.53;;
75311;SDS011;63906;55.686;37.532;2023-08-20T06:41:45;10.27;;;7.97;;
75311;SDS011;63906;55.686;37.532;2023-08-20T06:46:46;10.77;;;8.50;;
75311;SDS011;63906;55.686;37.532;2023-08-20T06:51:46;8.70;;;7.60;;
75311;SDS011;63906;55.686;37.532;2023-08-20T06:56:47;10.05;;;8.27;;
75311;SDS011;63906;55.686;37.532;2023-08-20T07:01:47;9.15;;;7.30;;
75311;SDS011;63906;55.686;37.532;2023-08-20T07:06:48;9.02;;;6.95;;
75311;SDS011;63906;55.686;37.532;2023-08-20T07:11:48;8.27;;;7.00;;
75311;SDS011;63906;55.686;37.532;2023-08-20T07:16:49;6.93;;;6.00;;
75311;SDS011;63906;55.686;37.532;2023-08-20T07:21:49;7.53;;;6.50;;
75311;SDS011;63906;55.686;37.532;2023-08-20T07:26:50;8.33;;;6.57;;
75311;SDS011;63906;55.686;37.532;2023-08-20T07:31:51;6.85;;;5.93;;
75311;SDS011;63906;55.686;37.532;2023-08-20T07:36:51;5.90;;;5.30;;
75311;SDS011;63906;55.686;37.532;2023-08-20T07:41:52;7.05;;;5.72;;
75311;SDS011;63906;55.686;37.532;2023-08-20T07:46:52;6.82;;;5.88;;
75311;SDS011;63906;55.686;37.532;2023-08-20T07:51:53;6.30;;;5.60;;
75311;SDS011;63906;55.686;37.532;2023-08-20T08:01:55;6.30;;;5.43;;
75311;SDS011;63906;55.686;37.532;2023-08-20T08:06:56;6.20;;;5.60;;
75311;SDS011;63906;55.686;37.532;2023-08-20T08:11:56;6.13;;;5.45;;
75311;SDS011;63906;55.686;37.532;2023-08-20T08:16:58;7.63;;;6.13;;
75311;SDS011;63906;55.686;37.532;2023-08-20T08:21:59;8.60;;;6.70;;
75311;SDS011;63906;55.686;37.532;2023-08-20T08:26:59;6.85;;;5.93;;
75311;SDS011;63906;55.686;37.532;2023-08-20T08:32:00;7.00;;;6.30;;
75311;SDS011;63906;55.686;37.532;2023-08-20T08:37:00;7.40;;;6.18;;
75311;SDS011;63906;55.686;37.532;2023-08-20T08:42:01;6.22;;;5.55;;
75311;SDS011;63906;55.686;37.532;2023-08-20T08:47:07;7.00;;;6.30;;
75311;SDS011;63906;55.686;37.532;2023-08-20T08:52:08;7.65;;;5.65;;
75311;SDS011;63906;55.686;37.532;2023-08-20T08:57:11;6.97;;;5.60;;
75311;SDS011;63906;55.686;37.532;2023-08-20T09:02:11;5.90;;;5.10;;
75311;SDS011;63906;55.686;37.532;2023-08-20T09:07:13;6.03;;;4.97;;
75311;SDS011;63906;55.686;37.532;2023-08-20T09:12:15;5.60;;;4.82;;
75311;SDS011;63906;55.686;37.532;2023-08-20T09:17:17;4.63;;;4.22;;
75311;SDS011;63906;55.686;37.532;2023-08-20T09:22:20;4.97;;;4.18;;
75311;SDS011;63906;55.686;37.532;2023-08-20T09:27:22;4.90;;;3.97;;
75311;SDS011;63906;55.686;37.532;2023-08-20T09:32:24;4.45;;;4.05;;
75311;SDS011;63906;55.686;37.532;2023-08-20T09:37:27;4.57;;;4.18;;
75311;SDS011;63906;55.686;37.532;2023-08-20T09:42:27;4.18;;;3.78;;
75311;SDS011;63906;55.686;37.532;2023-08-20T09:47:30;4.18;;;3.78;;
75311;SDS011;63906;55.686;37.532;2023-08-20T09:52:39;4.25;;;3.88;;
75311;SDS011;63906;55.686;37.532;2023-08-20T09:57:44;4.72;;;4.25;;
75311;SDS011;63906;55.686;37.532;2023-08-20T10:02:47;4.95;;;4.45;;
75311;SDS011;63906;55.686;37.532;2023-08-20T10:07:49;4.60;;;4.20;;
75311;SDS011;63906;55.686;37.532;2023-08-20T10:12:50;3.67;;;3.38;;
75311;SDS011;63906;55.686;37.532;2023-08-20T10:22:51;4.00;;;3.60;;
75311;SDS011;63906;55.686;37.532;2023-08-20T10:27:52;4.30;;;3.40;;
75311;SDS011;63906;55.686;37.532;2023-08-20T10:32:54;4.18;;;3.72;;
75311;SDS011;63906;55.686;37.532;2023-08-20T10:38:00;3.83;;;3.25;;
75311;SDS011;63906;55.686;37.532;2023-08-20T10:43:01;4.50;;;4.10;;
75311;SDS011;63906;55.686;37.532;2023-08-20T10:48:02;4.43;;;4.00;;
75311;SDS011;63906;55.686;37.532;2023-08-20T10:53:05;4.18;;;3.78;;
75311;SDS011;63906;55.686;37.532;2023-08-20T11:03:06;4.47;;;4.07;;
75311;SDS011;63906;55.686;37.532;2023-08-20T11:13:08;4.15;;;3.78;;
75311;SDS011;63906;55.686;37.532;2023-08-20T11:18:08;4.45;;;3.97;;
75311;SDS011;63906;55.686;37.532;2023-08-20T11:23:12;4.13;;;3.72;;
75311;SDS011;63906;55.686;37.532;2023-08-20T11:28:13;4.07;;;3.67;;
75311;SDS011;63906;55.686;37.532;2023-08-20T11:33:13;5.03;;;4.53;;
75311;SDS011;63906;55.686;37.532;2023-08-20T11:38:15;4.90;;;4.40;;
75311;SDS011;63906;55.686;37.532;2023-08-20T11:43:15;4.93;;;4.43;;
75311;SDS011;63906;55.686;37.532;2023-08-20T11:48:16;5.57;;;5.05;;
75311;SDS011;63906;55.686;37.532;2023-08-20T11:53:21;5.75;;;5.15;;
75311;SDS011;63906;55.686;37.532;2023-08-20T11:58:28;5.95;;;3.60;;
75311;SDS011;63906;55.686;37.532;2023-08-20T12:03:29;3.03;;;2.72;;
75311;SDS011;63906;55.686;37.532;2023-08-20T12:08:37;3.28;;;2.33;;
75311;SDS011;63906;55.686;37.532;2023-08-20T12:13:37;3.08;;;2.50;;
75311;SDS011;63906;55.686;37.532;2023-08-20T12:18:38;2.58;;;2.33;;
75311;SDS011;63906;55.686;37.532;2023-08-20T12:23:39;2.67;;;2.15;;
75311;SDS011;63906;55.686;37.532;2023-08-20T12:28:39;3.75;;;2.67;;
75311;SDS011;63906;55.686;37.532;2023-08-20T12:33:43;2.78;;;2.55;;
75311;SDS011;63906;55.686;37.532;2023-08-20T12:38:43;2.58;;;2.35;;
75311;SDS011;63906;55.686;37.532;2023-08-20T12:43:47;3.00;;;2.70;;
75311;SDS011;63906;55.686;37.532;2023-08-20T12:48:47;3.00;;;2.75;;
75311;SDS011;63906;55.686;37.532;2023-08-20T12:53:48;3.43;;;2.97;;
75311;SDS011;63906;55.686;37.532;2023-08-20T12:58:48;4.03;;;2.50;;
75311;SDS011;63906;55.686;37.532;2023-08-20T13:03:49;2.28;;;2.08;;
75311;SDS011;63906;55.686;37.532;2023-08-20T13:08:50;3.92;;;1.70;;
75311;SDS011;63906;55.686;37.532;2023-08-20T13:13:51;2.75;;;2.08;;
75311;SDS011;63906;55.686;37.532;2023-08-20T13:18:52;2.63;;;1.60;;
75311;SDS011;63906;55.686;37.532;2023-08-20T13:23:52;3.20;;;1.98;;
75311;SDS011;63906;55.686;37.532;2023-08-20T13:28:53;2.17;;;1.65;;
75311;SDS011;63906;55.686;37.532;2023-08-20T13:33:54;1.77;;;1.67;;
75311;SDS011;63906;55.686;37.532;2023-08-20T13:38:54;2.65;;;2.17;;
75311;SDS011;63906;55.686;37.532;2023-08-20T13:43:55;2.38;;;2.17;;
75311;SDS011;63906;55.686;37.532;2023-08-20T13:48:56;3.00;;;2.38;;
75311;SDS011;63906;55.686;37.532;2023-08-20T13:53:56;2.53;;;2.28;;
75311;SDS011;63906;55.686;37.532;2023-08-20T13:58:58;4.95;;;3.45;;
75311;SDS011;63906;55.686;37.532;2023-08-20T14:03:58;3.55;;;3.17;;
75311;SDS011;63906;55.686;37.532;2023-08-20T14:08:58;3.53;;;2.70;;
75311;SDS011;63906;55.686;37.532;2023-08-20T14:13:59;3.50;;;3.20;;
75311;SDS011;63906;55.686;37.532;2023-08-20T14:18:59;3.17;;;2.85;;
75311;SDS011;63906;55.686;37.532;2023-08-20T14:24:00;3.80;;;3.40;;
75311;SDS011;63906;55.686;37.532;2023-08-20T14:29:01;3.28;;;2.97;;
75311;SDS011;63906;55.686;37.532;2023-08-20T14:34:01;3.47;;;2.92;;
75311;SDS011;63906;55.686;37.532;2023-08-20T14:39:05;3.55;;;3.22;;
75311;SDS011;63906;55.686;37.532;2023-08-20T14:44:06;3.50;;;3.10;;
75311;SDS011;63906;55.686;37.532;2023-08-20T14:49:06;4.45;;;3.55;;
75311;SDS011;63906;55.686;37.532;2023-08-20T14:54:07;5.55;;;3.97;;
75311;SDS011;63906;55.686;37.532;2023-08-20T14:59:07;4.10;;;3.70;;
75311;SDS011;63906;55.686;37.532;2023-08-20T15:04:10;4.68;;;4.20;;
75311;SDS011;63906;55.686;37.532;2023-08-20T15:09:13;5.60;;;4.10;;
75311;SDS011;63906;55.686;37.532;2023-08-20T15:14:15;5.25;;;4.75;;
75311;SDS011;63906;55.686;37.532;2023-08-20T15:19:15;5.38;;;4.20;;
75311;SDS011;63906;55.686;37.532;2023-08-20T15:24:19;4.97;;;4.40;;
75311;SDS011;63906;55.686;37.532;2023-08-20T15:29:19;6.40;;;5.23;;
75311;SDS011;63906;55.686;37.532;2023-08-20T15:34:20;7.93;;;6.55;;
75311;SDS011;63906;55.686;37.532;2023-08-20T15:39:20;7.53;;;6.03;;
75311;SDS011;63906;55.686;37.532;2023-08-20T15:44:21;6.80;;;5.18;;
75311;SDS011;63906;55.686;37.532;2023-08-20T15:49:22;5.82;;;4.88;;
75311;SDS011;63906;55.686;37.532;2023-08-20T15:54:23;9.50;;;7.53;;
75311;SDS011;63906;55.686;37.532;2023-08-20T15:59:25;10.80;;;7.85;;
75311;SDS011;63906;55.686;37.532;2023-08-20T16:04:26;9.00;;;6.40;;
75311;SDS011;63906;55.686;37.532;2023-08-20T16:09:26;8.48;;;6.78;;
75311;SDS011;63906;55.686;37.532;2023-08-20T16:14:27;8.57;;;6.43;;
75311;SDS011;63906;55.686;37.532;2023-08-20T16:19:27;7.00;;;5.63;;
75311;SDS011;63906;55.686;37.532;2023-08-20T16:24:28;7.10;;;5.20;;
75311;SDS011;63906;55.686;37.532;2023-08-20T16:29:29;7.05;;;5.15;;
75311;SDS011;63906;55.686;37.532;2023-08-20T16:34:30;6.68;;;5.05;;
75311;SDS011;63906;55.686;37.532;2023-08-20T16:39:30;5.75;;;4.93;;
75311;SDS011;63906;55.686;37.532;2023-08-20T16:44:30;5.60;;;4.70;;
75311;SDS011;63906;55.686;37.532;2023-08-20T16:49:31;6.18;;;4.97;;
75311;SDS011;63906;55.686;37.532;2023-08-20T16:54:32;7.78;;;5.65;;
75311;SDS011;63906;55.686;37.532;2023-08-20T16:59:32;6.70;;;5.17;;
75311;SDS011;63906;55.686;37.532;2023-08-20T17:04:32;7.03;;;5.35;;
75311;SDS011;63906;55.686;37.532;2023-08-20T17:09:33;6.77;;;4.97;;
75311;SDS011;63906;55.686;37.532;2023-08-20T17:14:33;7.38;;;4.75;;
75311;SDS011;63906;55.686;37.532;2023-08-20T17:19:34;6.55;;;4.80;;
75311;SDS011;63906;55.686;37.532;2023-08-20T17:24:35;6.35;;;4.55;;
75311;SDS011;63906;55.686;37.532;2023-08-20T17:29:36;5.15;;;4.40;;
75311;SDS011;63906;55.686;37.532;2023-08-20T17:34:37;5.03;;;4.18;;
75311;SDS011;63906;55.686;37.532;2023-08-20T17:39:38;5.63;;;4.50;;
75311;SDS011;63906;55.686;37.532;2023-08-20T17:44:38;5.15;;;4.00;;
75311;SDS011;63906;55.686;37.532;2023-08-20T17:49:38;5.75;;;4.40;;
75311;SDS011;63906;55.686;37.532;2023-08-20T17:54:39;5.73;;;4.37;;
75311;SDS011;63906;55.686;37.532;2023-08-20T17:59:39;6.37;;;5.10;;
75311;SDS011;63906;55.686;37.532;2023-08-20T18:04:40;5.70;;;4.23;;
75311;SDS011;63906;55.686;37.532;2023-08-20T18:09:41;4.15;;;3.75;;
75311;SDS011;63906;55.686;37.532;2023-08-20T18:14:41;4.33;;;3.60;;
75311;SDS011;63906;55.686;37.532;2023-08-20T18:19:42;4.57;;;4.10;;
75311;SDS011;63906;55.686;37.532;2023-08-20T18:24:42;3.90;;;3.27;;
75311;SDS011;63906;55.686;37.532;2023-08-20T18:29:44;3.55;;;2.83;;
75311;SDS011;63906;55.686;37.532;2023-08-20T18:34:44;3.60;;;3.05;;
75311;SDS011;63906;55.686;37.532;2023-08-20T18:39:45;3.65;;;3.00;;
75311;SDS011;63906;55.686;37.532;2023-08-20T18:44:45;5.23;;;3.00;;
75311;SDS011;63906;55.686;37.532;2023-08-20T18:49:46;2.90;;;2.40;;
75311;SDS011;63906;55.686;37.532;2023-08-20T18:54:49;4.05;;;2.72;;
75311;SDS011;63906;55.686;37.532;2023-08-20T18:59:49;4.68;;;3.63;;
75311;SDS011;63906;55.686;37.532;2023-08-20T19:04:50;3.38;;;2.67;;
75311;SDS011;63906;55.686;37.532;2023-08-20T19:09:52;3.00;;;2.70;;
75311;SDS011;63906;55.686;37.532;2023-08-20T19:14:52;3.58;;;2.60;;
75311;SDS011;63906;55.686;37.532;2023-08-20T19:19:53;5.10;;;2.70;;
75311;SDS011;63906;55.686;37.532;2023-08-20T19:24:53;2.87;;;2.37;;
75311;SDS011;63906;55.686;37.532;2023-08-20T19:29:54;3.97;;;2.70;;
75311;SDS011;63906;55.686;37.532;2023-08-20T19:34:54;3.30;;;2.20;;
75311;SDS011;63906;55.686;37.532;2023-08-20T19:39:54;3.08;;;2.58;;
75311;SDS011;63906;55.686;37.532;2023-08-20T19:44:55;3.10;;;2.25;;
75311;SDS011;63906;55.686;37.532;2023-08-20T19:49:55;2.72;;;1.92;;
75311;SDS011;63906;55.686;37.532;2023-08-20T19:54:56;3.85;;;2.88;;
75311;SDS011;63906;55.686;37.532;2023-08-20T19:59:59;3.33;;;2.45;;
75311;SDS011;63906;55.686;37.532;2023-08-20T20:05:00;2.35;;;1.90;;
75311;SDS011;63906;55.686;37.532;2023-08-20T20:10:05;3.25;;;2.20;;
75311;SDS011;63906;55.686;37.532;2023-08-20T20:15:07;2.53;;;2.00;;
75311;SDS011;63906;55.686;37.532;2023-08-20T20:20:10;2.67;;;2.15;;
75311;SDS011;63906;55.686;37.532;2023-08-20T20:25:11;2.55;;;2.30;;
75311;SDS011;63906;55.686;37.532;2023-08-20T20:30:12;2.90;;;2.55;;
75311;SDS011;63906;55.686;37.532;2023-08-20T20:35:12;2.42;;;2.22;;
75311;SDS011;63906;55.686;37.532;2023-08-20T20:40:13;3.42;;;2.83;;
75311;SDS011;63906;55.686;37.532;2023-08-20T20:45:13;3.17;;;2.40;;
75311;SDS011;63906;55.686;37.532;2023-08-20T20:50:14;2.88;;;2.42;;
75311;SDS011;63906;55.686;37.532;2023-08-20T20:55:15;3.08;;;2.40;;
75311;SDS011;63906;55.686;37.532;2023-08-20T21:00:15;3.40;;;2.42;;
75311;SDS011;63906;55.686;37.532;2023-08-20T21:05:16;2.30;;;2.10;;
75311;SDS011;63906;55.686;37.532;2023-08-20T21:10:17;2.50;;;2.05;;
75311;SDS011;63906;55.686;37.532;2023-08-20T21:15:18;3.20;;;2.10;;
75311;SDS011;63906;55.686;37.532;2023-08-20T21:20:19;3.40;;;2.22;;
75311;SDS011;63906;55.686;37.532;2023-08-20T21:25:19;3.05;;;2.25;;
75311;SDS011;63906;55.686;37.532;2023-08-20T21:30:20;3.10;;;2.45;;
75311;SDS011;63906;55.686;37.532;2023-08-20T21:35:21;2.97;;;2.70;;
75311;SDS011;63906;55.686;37.532;2023-08-20T21:40:21;3.38;;;2.40;;
75311;SDS011;63906;55.686;37.532;2023-08-20T21:45:22;3.45;;;2.80;;
75311;SDS011;63906;55.686;37.532;2023-08-20T21:50:22;3.58;;;2.88;;
75311;SDS011;63906;55.686;37.532;2023-08-20T21:55:23;2.95;;;2.65;;
75311;SDS011;63906;55.686;37.532;2023-08-20T22:00:23;3.13;;;2.80;;
75311;SDS011;63906;55.686;37.532;2023-08-20T22:05:24;2.90;;;2.58;;
75311;SDS011;63906;55.686;37.532;2023-08-20T22:10:24;2.15;;;1.80;;
75311;SDS011;63906;55.686;37.532;2023-08-20T22:15:25;2.15;;;1.80;;
75311;SDS011;63906;55.686;37.532;2023-08-20T22:20:26;1.45;;;1.25;;
75311;SDS011;63906;55.686;37.532;2023-08-20T22:25:26;1.65;;;1.30;;
75311;SDS011;63906;55.686;37.532;2023-08-20T22:30:27;1.75;;;1.55;;
75311;SDS011;63906;55.686;37.532;2023-08-20T22:35:30;1.42;;;1.10;;
75311;SDS011;63906;55.686;37.532;2023-08-20T22:40:31;1.23;;;1.13;;
75311;SDS011;63906;55.686;37.532;2023-08-20T22:45:35;1.27;;;1.00;;
75311;SDS011;63906;55.686;37.532;2023-08-20T22:50:36;1.08;;;0.82;;
75311;SDS011;63906;55.686;37.532;2023-08-20T22:55:36;1.43;;;1.13;;
75311;SDS011;63906;55.686;37.532;2023-08-20T23:00:37;1.17;;;0.80;;
75311;SDS011;63906;55.686;37.532;2023-08-20T23:05:37;1.33;;;1.08;;
75311;SDS011;63906;55.686;37.532;2023-08-20T23:10:38;1.05;;;0.82;;
75311;SDS011;63906;55.686;37.532;2023-08-20T23:15:38;1.30;;;0.90;;
75311;SDS011;63906;55.686;37.532;2023-08-20T23:20:39;1.40;;;1.00;;
75311;SDS011;63906;55.686;37.532;2023-08-20T23:25:39;1.37;;;0.90;;
75311;SDS011;63906;55.686;37.532;2023-08-20T23:30:43;1.10;;;0.88;;
75311;SDS011;63906;55.686;37.532;2023-08-20T23:35:44;1.77;;;1.20;;
75311;SDS011;63906;55.686;37.532;2023-08-20T23:40:44;1.63;;;0.95;;
75311;SDS011;63906;55.686;37.532;2023-08-20T23:45:45;1.60;;;0.90;;
75311;SDS011;63906;55.686;37.532;2023-08-20T23:50:45;1.30;;;1.20;;
75311;SDS011;63906;55.686;37.532;2023-08-20T23:55:46;1.27;;;1.07;;
